One Hundred Fifty Mile House, Canada
Current Conditions -  °F | °C
As of 9:00 AM on Saturday 20 Dec 2014 (Local Time) from CYWL Reporting Station
Broken Clouds Broken Clouds  
Wind Chill: 23°   Ceiling: 21000
Heat Index: 34°   Visibility: 15mi
Dew Point: 23°   Wind: 18mph
Humidity: 65%   Direction: 110°ESE
Pressure: 29.46"   Gusts: 33mph
Location:  52.12°N, 121.93°W
Report Text: CYWL 201700Z 11016G29KT 15SM FEW010 FEW030 SCT100 BKN210 01/M05 A2946 RMK CF1SC1AC3CI1 CF TR SLP008
Loading
Personal Weather Stations






























Interactive Weather Map New forecast layout! Learn more

10-Day Weather Forecast

Advertisements
Track Severe Weather on mobile